You are not logged in.

#1 2008-05-14 22:33:23

Becksboy
Member
Registered: 2008-05-14
Posts: 1

Was ist falsch mit diesem gpx?

Hallo allerseits,  ich bin ein wenig gefrustet, weil ich den Fehler in meiner gpx-Datei nicht finde. Ich bin auch nicht in der Lage die gpx-Datei in JOSM zu importieren. Hier erstmal die Fehlermeldung aus der Mail von OSM. 

failed to import. Here's the error:    Non-conforming drawing primitive definition `line' /var/www/rails/lib/osm.rb:203:in `draw' /var/www/rails/lib/osm.rb:203:in `get_picture' /var/www/rails/lib/osm.rb:194:in `get_picture' /var/www/rails/lib/osm.rb:141:in `points' /usr/lib/ruby/1.8/rexml/parsers/sax2parser.rb:136:in `parse' /usr/lib/ruby/1.8/rexml/parsers/sax2parser.rb:136:in `parse' /var/www/rails/lib/osm.rb:149:in `points' /var/www/rails/lib/osm.rb:189:in `get_picture' /var/www/rails/app/models/trace.rb:220:in `import' /var/www/rails/lib/daemons/gpx_import.rb:21 /var/www/rails/lib/daemons/gpx_import.rb:15 /usr/lib/ruby/gems/1.8/gems/daemons-1.0.9/lib/daemons/application.rb:159:in `start_load' /usr/lib/ruby/gems/1.8/gems/daemons-1.0.9/lib/daemons/application.rb:236:in `start' /usr/lib/ruby/gems/1.8/gems/daemons-1.0.9/lib/daemons/monitor.rb:51:in `watch' /usr/lib/ruby/gems/1.8/gems/daemons-1.0.9/lib/daemons/monitor.rb:51:in `watch' /usr/lib/ruby/gems/1.8/gems/daemons-1.0.9/lib/daemons/monitor.rb:45:in `watch' /usr/lib/ruby/gems/1.8/gems/daemons-1.0.9/lib/daemons/monitor.rb:44:in `watch' /usr/lib/ruby/gems/1.8/gems/daemons-1.0.9/lib/daemons/monitor.rb:84:in `start_with_pidfile' /usr/lib/ruby/gems/1.8/gems/daemons-1.0.9/lib/daemons/monitor.rb:64:in `start_with_pidfile' /usr/lib/ruby/gems/1.8/gems/daemons-1.0.9/lib/daemons/monitor.rb:111:in `start' /usr/lib/ruby/gems/1.8/gems/daemons-1.0.9/lib/daemons/application_group.rb:111:in `create_monitor' /usr/lib/ruby/gems/1.8/gems/daemons-1.0.9/lib/daemons/application.rb:223:in `start' /usr/lib/ruby/gems/1.8/gems/daemons-1.0.9/lib/daemons/controller.rb:69:in `run' /usr/lib/ruby/gems/1.8/gems/daemons-1.0.9/lib/daemons.rb:136:in `run' /usr/lib/ruby/gems/1.8/gems/daemons-1.0.9/lib/daemons/cmdline.rb:105:in `catch_exceptions' /usr/lib/ruby/gems/1.8/gems/daemons-1.0.9/lib/daemons.rb:135:in `run' lib/daemons/gpx_import_ctl:20

Hier meine gpx-Datei: 

<?xml version="1.0" encoding="UTF-8" standalone="no" ?> <gpx xmlns:xsi="http://www.w3.org/2001/XMLSchema-instance" version="1.1" xmlns="http://www.topografix.com/GPX/1/1" creator="QLandkarte" xsi:schemaLocation="http://www.topografix.com/GPX/1/1 http://www.topografix.com/GPX/1/1/gpx.xsd" >  <metadata>   <link href="http://qlandkarte.sourceforge.net/" >    <text>QLandkarte</text>   </link>   <time>2008-05-14T21:31:14Z</time>  </metadata>  <trk>   <name>ACTIVE LOG</name>   <extension>    <color>10</color>   </extension>   <trkseg>    <trkpt lon="13,17232000641525" lat="52,4184928368777" >     <ele>28.0155</ele>     <time>2008-05-13T11:41:14Z</time>     <extension>      <flags>0</flags>     </extension>    </trkpt>    <trkpt lon="13,17230483517051" lat="52,41849241778255" >     <ele>28.4962</ele>     <time>2008-05-13T11:41:17Z</time>     <extension>      <flags>0</flags>     </extension>    </trkpt>    <trkpt lon="13,17215781658888" lat="52,41847272031009" >     <ele>28.4962</ele>     <time>2008-05-13T11:41:23Z</time>     <extension>      <flags>0</flags>     </extension>    </trkpt>    <trkpt lon="13,17209755070508" lat="52,41849107667804" >     <ele>28.0155</ele>     <time>2008-05-13T11:41:27Z</time>     <extension>      <flags>0</flags>     </extension>    </trkpt>    <trkpt lon="13,1720756739378" lat="52,41852636449039" >     <ele>27.5349</ele>     <time>2008-05-13T11:41:31Z</time>     <extension>      <flags>0</flags>     </extension>    </trkpt>    <trkpt lon="13,17194608971477" lat="52,41860087960958" >     <ele>26.5736</ele>     <time>2008-05-13T11:41:41Z</time>     <extension>      <flags>0</flags>     </extension>    </trkpt>    <trkpt lon="13,17193536087871" lat="52,41860766895115" >     <ele>26.5736</ele>     <time>2008-05-13T11:41:42Z</time>     <extension>      <flags>0</flags>     </extension>    </trkpt>    <trkpt lon="13,17185799591243" lat="52,41868603974581" >     <ele>26.0929</ele>     <time>2008-05-13T11:41:48Z</time>     <extension>      <flags>0</flags>     </extension>    </trkpt>    <trkpt lon="13,17184207029641" lat="52,41869676858187" >     <ele>26.5736</ele>     <time>2008-05-13T11:41:49Z</time>     <extension>      <flags>0</flags>     </extension>    </trkpt>    <trkpt lon="13,1718526314944" lat="52,41877606138587" >     <ele>28.0155</ele>     <time>2008-05-13T11:41:58Z</time>     <extension>      <flags>0</flags>     </extension>    </trkpt>    <trkpt lon="13,17185355350375" lat="52,41878771223128" >     <ele>29.4575</ele>     <time>2008-05-13T11:42:05Z</time>     <extension>      <flags>0</flags>     </extension>    </trkpt>    <trkpt lon="13,17179982550442" lat="52,4187832698226" >     <ele>29.9381</ele>     <time>2008-05-13T11:42:23Z</time>     <extension>      <flags>0</flags>     </extension>    </trkpt>    <trkpt lon="13,17176034674048" lat="52,41879475302994" >     <ele>28.9769</ele>     <time>2008-05-13T11:42:26Z</time>     <extension>      <flags>0</flags>     </extension>    </trkpt>    <trkpt lon="13,17173578776419" lat="52,41882123984396" >     <ele>28.9769</ele>     <time>2008-05-13T11:42:31Z</time>     <extension>      <flags>0</flags>     </extension>    </trkpt>    <trkpt lon="13,17170586436987" lat="52,41886029951274" >     <ele>28.9769</ele>     <time>2008-05-13T11:42:39Z</time>     <extension>      <flags>0</flags>     </extension>    </trkpt>    <trkpt lon="13,17172078415751" lat="52,41890522651374" >     <ele>24.651</ele>     <time>2008-05-13T11:42:48Z</time>     <extension>      <flags>0</flags>     </extension>    </trkpt>    <trkpt lon="13,17168641835451" lat="52,41896247491241" >     <ele>21.2864</ele>     <time>2008-05-13T11:42:56Z</time>     <extension>      <flags>0</flags>     </extension>    </trkpt>    <trkpt lon="13,17165263928473" lat="52,41899407468736" >     <ele>19.8444</ele>     <time>2008-05-13T11:43:01Z</time>     <extension>      <flags>0</flags>     </extension>    </trkpt>    <trkpt lon="13,17160930484533" lat="52,41901393979788" >     <ele>17.9218</ele>     <time>2008-05-13T11:43:07Z</time>     <extension>      <flags>0</flags>     </extension>    </trkpt>    <trkpt lon="13,17153688520193" lat="52,41905936971307" >     <ele>16.4797</ele>     <time>2008-05-13T11:43:14Z</time>     <extension>      <flags>0</flags>     </extension>    </trkpt>    <trkpt lon="13,17145180888474" lat="52,41911804303527" >     <ele>16.9604</ele>     <time>2008-05-13T11:43:22Z</time>     <extension>      <flags>0</flags>     </extension>    </trkpt>    <trkpt lon="13,17138123326004" lat="52,41917487233877" >     <ele>16.9604</ele>     <time>2008-05-13T11:43:31Z</time>     <extension>      <flags>0</flags>     </extension>    </trkpt>    <trkpt lon="13,17135080695152" lat="52,41918224841356" >     <ele>17.9218</ele>     <time>2008-05-13T11:43:43Z</time>     <extension>      <flags>0</flags>     </extension>    </trkpt>    <trkpt lon="13,1712656468153" lat="52,41913774050772" >     <ele>18.4023</ele>     <time>2008-05-13T11:43:50Z</time>     <extension>      <flags>0</flags>     </extension>    </trkpt>    <trkpt lon="13,17117034457624" lat="52,41909474134445" >     <ele>16.9604</ele>     <time>2008-05-13T11:44:00Z</time>     <extension>      <flags>0</flags>     </extension>    </trkpt>    <trkpt lon="13,17118878476322" lat="52,41909189149737" >     <ele>16.9604</ele>     <time>2008-05-13T11:44:01Z</time>     <extension>      <flags>0</flags>     </extension>    </trkpt>    <trkpt lon="13,17128702066839" lat="52,41913505829871" >     <ele>16.4797</ele>     <time>2008-05-13T11:44:07Z</time>     <extension>      <flags>0</flags>     </extension>    </trkpt>    <trkpt lon="13,17138793878257" lat="52,41918241605163" >     <ele>17.4412</ele>     <time>2008-05-13T11:44:15Z</time>     <extension>      <flags>0</flags>     </extension>    </trkpt>    <trkpt lon="13,17145398817956" lat="52,41921359673142" >     <ele>16.4797</ele>     <time>2008-05-13T11:44:21Z</time>     <extension>      <flags>0</flags>     </extension>    </trkpt>    <trkpt lon="13,17148877307773" lat="52,4192251637578" >     <ele>15.5184</ele>     <time>2008-05-13T11:44:26Z</time>     <extension>      <flags>0</flags>     </extension>    </trkpt>    <trkpt lon="13,17148483358324" lat="52,41922306828201" >     <ele>15.5184</ele>     <time>2008-05-13T11:44:28Z</time>     <extension>      <flags>0</flags>     </extension>    </trkpt>   </trkseg>  </trk> </gpx>

Offline

#2 2008-05-15 12:55:23

Henry Every
Member
Registered: 2008-02-05
Posts: 26

Re: Was ist falsch mit diesem gpx?

Hi,  wieso hast du Kommas in als Trenner in deiner Datei ?   Wenn du diese gegen Punkte ersetzt klappt es mit dem Nachbarn.  ;-)   Henry

Offline

Board footer

Powered by FluxBB